Time,TemperatureF,DewpointF,PressureIn,WindDirection,WindDirectionDegrees,WindSpeedMPH,WindSpeedGustMPH,Humidity,HourlyPrecipIn,Conditions,Clouds,dailyrainin,SoftwareType,DateUTC
2013-06-24 00:07:00,66.2,64.0,29.85,SSW,212,0.0,0.0,91,0.00,,,0.00,weatherlink.com 1.10,2013-06-24 05:07:00,
2013-06-24 00:22:00,66.0,64.0,29.85,SSW,213,0.0,0.0,93,0.00,,,0.00,weatherlink.com 1.10,2013-06-24 05:22:00,
2013-06-24 00:37:00,65.8,64.0,29.85,SSW,212,0.0,0.0,92,0.00,,,0.00,weatherlink.com 1.10,2013-06-24 05:37:00,
2013-06-24 00:52:00,65.2,64.0,29.85,SW,222,0.0,4.0,94,0.00,,,0.00,weatherlink.com 1.10,2013-06-24 05:52:00,
2013-06-24 01:07:00,65.2,63.0,29.84,SW,222,0.0,1.0,93,0.00,,,0.00,weatherlink.com 1.10,2013-06-24 06:07:00,
2013-06-24 01:22:00,65.0,63.0,29.85,SW,222,0.0,0.0,94,0.00,,,0.00,weatherlink.com 1.10,2013-06-24 06:22:00,
2013-06-24 01:37:00,64.6,63.0,29.84,SW,222,0.0,0.0,95,0.00,,,0.00,weatherlink.com 1.10,2013-06-24 06:37:00,
2013-06-24 01:52:00,65.0,63.0,29.84,SW,222,0.0,0.0,94,0.00,,,0.00,weatherlink.com 1.10,2013-06-24 06:52:00,
2013-06-24 02:07:00,64.5,63.0,29.84,SW,223,0.0,0.0,93,0.00,,,0.00,weatherlink.com 1.10,2013-06-24 07:07:00,
2013-06-24 02:37:00,63.2,62.0,29.83,SW,223,0.0,0.0,96,0.00,,,0.00,weatherlink.com 1.10,2013-06-24 07:37:00,
2013-06-24 02:52:00,62.9,62.0,29.83,SW,222,0.0,0.0,96,0.00,,,0.00,weatherlink.com 1.10,2013-06-24 07:52:00,
2013-06-24 03:07:00,62.8,62.0,29.83,SW,222,0.0,0.0,96,0.00,,,0.00,weatherlink.com 1.10,2013-06-24 08:07:00,
2013-06-24 03:22:00,63.0,62.0,29.83,SW,222,0.0,0.0,97,0.00,,,0.00,weatherlink.com 1.10,2013-06-24 08:22:00,
2013-06-24 03:52:00,62.0,61.0,29.83,SW,222,0.0,0.0,97,0.00,,,0.00,weatherlink.com 1.10,2013-06-24 08:52:00,
2013-06-24 04:07:00,62.4,62.0,29.83,SW,222,1.0,1.0,97,0.00,,,0.00,weatherlink.com 1.10,2013-06-24 09:07:00,
2013-06-24 04:22:00,62.8,62.0,29.82,NE,49,0.0,0.0,98,0.00,,,0.00,weatherlink.com 1.10,2013-06-24 09:22:00,
2013-06-24 04:37:00,63.2,63.0,29.83,ESE,102,0.0,2.0,98,0.00,,,0.00,weatherlink.com 1.10,2013-06-24 09:37:00,
2013-06-24 04:52:00,63.2,63.0,29.82,ESE,102,0.0,0.0,98,0.00,,,0.00,weatherlink.com 1.10,2013-06-24 09:52:00,
2013-06-24 05:07:00,63.4,63.0,29.82,North,354,1.0,2.0,97,0.00,,,0.00,weatherlink.com 1.10,2013-06-24 10:07:00,
2013-06-24 05:22:00,62.8,62.0,29.82,NNW,328,0.0,0.0,98,0.00,,,0.00,weatherlink.com 1.10,2013-06-24 10:22:00,
2013-06-24 05:37:00,62.9,62.0,29.83,NNW,328,0.0,0.0,97,0.00,,,0.00,weatherlink.com 1.10,2013-06-24 10:37:00,
2013-06-24 05:52:00,63.3,63.0,29.84,NW,312,0.0,1.0,97,0.00,,,0.00,weatherlink.com 1.10,2013-06-24 10:52:00,
2013-06-24 06:07:00,64.2,63.0,29.84,ENE,57,1.0,2.0,97,0.00,,,0.00,weatherlink.com 1.10,2013-06-24 11:07:00,
2013-06-24 06:38:00,65.7,64.0,29.82,East,80,1.0,2.0,95,0.00,,,0.00,weatherlink.com 1.10,2013-06-24 11:38:00,
2013-06-24 06:53:00,67.4,66.0,29.80,ESE,103,3.0,6.0,94,0.00,,,0.00,weatherlink.com 1.10,2013-06-24 11:53:00,
2013-06-24 07:08:00,68.8,66.0,29.79,ENE,77,5.0,5.0,92,0.00,,,0.00,weatherlink.com 1.10,2013-06-24 12:08:00,
2013-06-24 07:23:00,69.7,67.0,29.79,East,94,5.0,6.0,92,0.00,,,0.00,weatherlink.com 1.10,2013-06-24 12:23:00,
2013-06-24 07:38:00,70.3,68.0,29.80,East,93,4.0,6.0,92,0.00,,,0.00,weatherlink.com 1.10,2013-06-24 12:38:00,
2013-06-24 07:53:00,70.7,69.0,29.81,East,92,4.0,5.0,93,0.00,,,0.00,weatherlink.com 1.10,2013-06-24 12:53:00,
2013-06-24 08:08:00,71.2,69.0,29.82,East,79,2.0,6.0,93,0.00,,,0.00,weatherlink.com 1.10,2013-06-24 13:08:00,
2013-06-24 08:23:00,71.8,69.0,29.84,South,169,3.0,4.0,92,0.00,,,0.00,weatherlink.com 1.10,2013-06-24 13:23:00,
2013-06-24 08:38:00,72.2,70.0,29.84,SE,145,2.0,4.0,92,0.00,,,0.00,weatherlink.com 1.10,2013-06-24 13:38:00,
2013-06-24 09:08:00,71.9,70.0,29.84,ESE,116,2.0,4.0,93,0.00,,,0.00,weatherlink.com 1.10,2013-06-24 14:08:00,
2013-06-24 09:23:00,71.8,69.0,29.84,SE,137,4.0,8.0,92,0.00,,,0.00,weatherlink.com 1.10,2013-06-24 14:23:00,
2013-06-24 09:53:00,71.0,69.0,29.85,SSW,198,11.0,18.0,93,0.01,,,0.01,weatherlink.com 1.10,2013-06-24 14:53:00,
2013-06-24 10:08:00,69.4,67.0,29.86,WSW,239,14.0,31.0,91,0.15,,,0.15,weatherlink.com 1.10,2013-06-24 15:08:00,
2013-06-24 10:38:00,68.6,65.0,29.83,East,88,1.0,7.0,87,0.27,,,0.27,weatherlink.com 1.10,2013-06-24 15:38:00,
2013-06-24 11:08:00,69.5,62.0,29.74,NE,53,11.0,14.0,78,0.16,,,0.32,weatherlink.com 1.10,2013-06-24 16:08:00,
2013-06-24 11:38:00,70.3,64.0,29.74,SE,139,6.0,6.0,79,0.05,,,0.32,weatherlink.com 1.10,2013-06-24 16:38:00,
2013-06-24 11:53:00,71.1,65.0,29.73,SE,124,6.0,8.0,80,0.00,,,0.32,weatherlink.com 1.10,2013-06-24 16:53:00,
2013-06-24 12:08:00,72.1,65.0,29.74,SE,139,8.0,11.0,77,0.00,,,0.32,weatherlink.com 1.10,2013-06-24 17:08:00,
2013-06-24 12:23:00,70.7,64.0,29.75,SSE,158,13.0,24.0,79,0.00,,,0.32,weatherlink.com 1.10,2013-06-24 17:23:00,
2013-06-24 12:38:00,70.5,64.0,29.76,SE,132,18.0,20.0,80,0.00,,,0.32,weatherlink.com 1.10,2013-06-24 17:38:00,
2013-06-24 12:53:00,70.4,65.0,29.79,SE,145,14.0,23.0,82,0.00,,,0.32,weatherlink.com 1.10,2013-06-24 17:53:00,
2013-06-24 13:08:00,69.9,64.0,29.76,SE,125,9.0,16.0,82,0.00,,,0.32,weatherlink.com 1.10,2013-06-24 18:08:00,
2013-06-24 13:23:00,69.4,64.0,29.74,NE,49,7.0,13.0,84,0.00,,,0.32,weatherlink.com 1.10,2013-06-24 18:23:00,
2013-06-24 13:38:00,69.6,65.0,29.77,South,184,2.0,6.0,84,0.00,,,0.32,weatherlink.com 1.10,2013-06-24 18:38:00,
2013-06-24 13:53:00,69.7,64.0,29.76,WSW,257,0.0,1.0,82,0.00,,,0.32,weatherlink.com 1.10,2013-06-24 18:53:00,
2013-06-24 14:08:00,69.9,65.0,29.76,East,81,3.0,3.0,83,0.00,,,0.32,weatherlink.com 1.10,2013-06-24 19:08:00,
2013-06-24 14:23:00,70.2,65.0,29.75,East,83,8.0,9.0,82,0.00,,,0.32,weatherlink.com 1.10,2013-06-24 19:23:00,
2013-06-24 14:53:00,71.7,65.0,29.75,SE,134,10.0,12.0,80,0.00,,,0.32,weatherlink.com 1.10,2013-06-24 19:53:00,
2013-06-24 15:08:00,72.7,65.0,29.76,SE,131,9.0,14.0,77,0.00,,,0.32,weatherlink.com 1.10,2013-06-24 20:08:00,
2013-06-24 15:39:00,75.5,67.0,29.76,SSE,162,15.0,21.0,76,0.00,,,0.32,weatherlink.com 1.10,2013-06-24 20:39:00,
2013-06-24 15:54:00,77.2,69.0,29.75,SSE,156,10.0,20.0,75,0.00,,,0.32,weatherlink.com 1.10,2013-06-24 20:54:00,
2013-06-24 16:09:00,78.6,66.0,29.75,South,184,15.0,20.0,66,0.00,,,0.32,weatherlink.com 1.10,2013-06-24 21:09:00,
2013-06-24 16:24:00,78.6,67.0,29.75,SW,222,12.0,20.0,67,0.00,,,0.32,weatherlink.com 1.10,2013-06-24 21:24:00,
2013-06-24 16:39:00,79.1,67.0,29.75,SSE,150,11.0,17.0,67,0.00,,,0.32,weatherlink.com 1.10,2013-06-24 21:39:00,
2013-06-24 16:54:00,77.9,64.0,29.75,South,184,15.0,21.0,62,0.00,,,0.32,weatherlink.com 1.10,2013-06-24 21:54:00,
2013-06-24 17:09:00,77.2,65.0,29.75,SSE,162,10.0,17.0,65,0.00,,,0.32,weatherlink.com 1.10,2013-06-24 22:09:00,
2013-06-24 17:24:00,75.5,65.0,29.75,SE,136,11.0,17.0,71,0.00,,,0.32,weatherlink.com 1.10,2013-06-24 22:24:00,
2013-06-24 17:54:00,73.7,65.0,29.75,ESE,102,11.0,18.0,73,0.00,,,0.32,weatherlink.com 1.10,2013-06-24 22:54:00,
2013-06-24 18:09:00,73.1,66.0,29.75,SSE,158,7.0,18.0,77,0.00,,,0.32,weatherlink.com 1.10,2013-06-24 23:09:00,
2013-06-24 18:39:00,73.1,67.0,29.74,SE,131,8.0,15.0,81,0.00,,,0.32,weatherlink.com 1.10,2013-06-24 23:39:00,
2013-06-24 18:54:00,73.3,68.0,29.73,SE,130,10.0,16.0,82,0.00,,,0.32,weatherlink.com 1.10,2013-06-24 23:54:00,
2013-06-24 19:09:00,73.1,67.0,29.74,SE,138,7.0,14.0,82,0.00,,,0.32,weatherlink.com 1.10,2013-06-25 00:09:00,
2013-06-24 19:24:00,72.6,67.0,29.73,ESE,118,10.0,16.0,83,0.00,,,0.32,weatherlink.com 1.10,2013-06-25 00:24:00,
2013-06-24 19:54:00,72.6,67.0,29.73,SSE,151,6.0,10.0,82,0.00,,,0.32,weatherlink.com 1.10,2013-06-25 00:54:00,
2013-06-24 20:09:00,72.6,67.0,29.73,SE,124,6.0,11.0,82,0.00,,,0.32,weatherlink.com 1.10,2013-06-25 01:09:00,
2013-06-24 20:24:00,72.4,67.0,29.73,SE,143,5.0,8.0,82,0.00,,,0.32,weatherlink.com 1.10,2013-06-25 01:24:00,
2013-06-24 20:54:00,71.4,67.0,29.72,ESE,121,4.0,6.0,85,0.00,,,0.32,weatherlink.com 1.10,2013-06-25 01:54:00,
2013-06-24 21:24:00,69.9,66.0,29.71,SE,143,6.0,10.0,88,0.00,,,0.32,weatherlink.com 1.10,2013-06-25 02:24:00,
2013-06-24 21:39:00,69.4,66.0,29.71,SE,132,4.0,8.0,90,0.00,,,0.32,weatherlink.com 1.10,2013-06-25 02:39:00,
2013-06-24 21:54:00,69.1,66.0,29.72,SSE,148,3.0,7.0,91,0.00,,,0.32,weatherlink.com 1.10,2013-06-25 02:54:00,
2013-06-24 22:54:00,68.3,66.0,29.75,East,91,5.0,6.0,92,0.00,,,0.32,weatherlink.com 1.10,2013-06-25 03:54:00,
2013-06-24 23:09:00,68.2,66.0,29.74,East,87,2.0,7.0,92,0.00,,,0.32,weatherlink.com 1.10,2013-06-25 04:09:00,
2013-06-24 23:24:00,67.8,66.0,29.74,East,84,5.0,6.0,93,0.00,,,0.32,weatherlink.com 1.10,2013-06-25 04:24:00,
2013-06-24 23:39:00,67.3,65.0,29.73,ENE,63,4.0,5.0,93,0.00,,,0.32,weatherlink.com 1.10,2013-06-25 04:39:00,
2013-06-24 23:54:00,67.3,65.0,29.73,East,84,5.0,6.0,93,0.00,,,0.32,weatherlink.com 1.10,2013-06-25 04:54:00,